createdAt,value
2023-04-13T00:00:36.469Z,30.60
2023-04-13T00:03:04.279Z,30.58
2023-04-13T00:05:31.866Z,32.13
2023-04-13T00:08:03.026Z,30.02
2023-04-13T00:10:36.817Z,31.92
2023-04-13T00:13:08.561Z,33.58
2023-04-13T00:15:38.108Z,34.25
2023-04-13T00:18:06.893Z,32.83
2023-04-13T00:20:33.736Z,36.38
2023-04-13T00:23:01.669Z,32.20
2023-04-13T00:25:29.271Z,33.72
2023-04-13T00:27:56.047Z,33.20
2023-04-13T00:30:22.801Z,33.20
2023-04-13T00:32:49.593Z,31.33
2023-04-13T00:35:24.967Z,35.25
2023-04-13T00:37:52.739Z,33.70
2023-04-13T00:40:19.518Z,38.97
2023-04-13T00:42:48.193Z,35.15
2023-04-13T00:45:15.742Z,34.28
2023-04-13T00:47:46.504Z,34.28
2023-04-13T00:50:14.225Z,35.45
2023-04-13T00:52:42.806Z,33.95
2023-04-13T00:55:09.688Z,36.05
2023-04-13T00:57:40.191Z,35.05
2023-04-13T01:00:11.423Z,31.85
2023-04-13T01:02:42.411Z,29.77
2023-04-13T01:05:12.757Z,31.80
2023-04-13T01:07:59.437Z,29.30
2023-04-13T01:10:50.384Z,33.10
2023-04-13T01:13:30.284Z,34.22
2023-04-13T01:18:38.454Z,28.77
2023-04-13T01:21:12.090Z,31.95
2023-04-13T01:24:06.357Z,29.98
2023-04-13T01:26:58.398Z,30.92
2023-04-13T01:29:27.302Z,25.48
2023-04-13T01:31:54.978Z,34.65
2023-04-13T01:34:23.844Z,30.90
2023-04-13T01:36:51.069Z,28.92
2023-04-13T01:39:19.674Z,32.42
2023-04-13T01:41:47.749Z,31.77
2023-04-13T01:44:14.478Z,28.80
2023-04-13T01:46:50.429Z,28.77
2023-04-13T01:49:35.800Z,27.17
2023-04-13T01:52:27.991Z,32.17
2023-04-13T01:54:56.514Z,33.90
2023-04-13T01:57:24.619Z,29.75
2023-04-13T01:59:52.066Z,30.75
2023-04-13T02:02:21.067Z,28.38
2023-04-13T02:04:48.534Z,29.35
2023-04-13T02:07:16.338Z,29.60
2023-04-13T02:09:47.184Z,29.73
2023-04-13T02:12:16.704Z,27.70
2023-04-13T02:14:43.574Z,27.48
2023-04-13T02:17:11.270Z,30.02
2023-04-13T02:19:39.918Z,29.95
2023-04-13T02:22:07.188Z,29.02
2023-04-13T02:24:33.720Z,28.10
2023-04-13T02:27:02.070Z,29.75
2023-04-13T02:29:29.672Z,29.23
2023-04-13T02:31:56.260Z,28.60
2023-04-13T02:34:23.126Z,30.25
2023-04-13T02:36:50.006Z,31.13
2023-04-13T02:39:16.523Z,31.33
2023-04-13T02:41:43.362Z,40.22
2023-04-13T02:44:14.874Z,46.35
2023-04-13T02:46:53.083Z,52.60
2023-04-13T02:49:19.973Z,45.78
2023-04-13T02:51:56.094Z,43.05
2023-04-13T02:54:34.601Z,42.53
2023-04-13T02:57:01.846Z,44.13
2023-04-13T02:59:29.065Z,43.53
2023-04-13T03:01:58.957Z,43.60
2023-04-13T03:04:29.207Z,41.67
2023-04-13T03:06:56.875Z,39.83
2023-04-13T03:09:25.208Z,38.55
2023-04-13T03:11:56.391Z,36.55
2023-04-13T03:14:24.317Z,34.55
2023-04-13T03:16:57.786Z,34.72
2023-04-13T03:19:31.976Z,34.95
2023-04-13T03:21:58.969Z,35.83
2023-04-13T03:24:27.592Z,35.40
2023-04-13T03:26:57.887Z,34.75
2023-04-13T03:29:31.718Z,38.50
2023-04-13T03:31:58.494Z,35.83
2023-04-13T03:34:27.118Z,34.90
2023-04-13T03:36:53.710Z,35.75
2023-04-13T03:39:21.026Z,36.65
2023-04-13T03:41:47.682Z,40.65
2023-04-13T03:44:16.512Z,41.85
2023-04-13T03:46:44.877Z,44.65
2023-04-13T03:49:31.915Z,46.65
2023-04-13T03:51:58.922Z,42.88
2023-04-13T03:54:26.944Z,44.65
2023-04-13T03:56:54.601Z,45.17
2023-04-13T03:59:22.264Z,43.97
2023-04-13T04:01:48.955Z,45.45
2023-04-13T04:04:16.170Z,43.78
2023-04-13T04:06:43.030Z,42.97
2023-04-13T04:09:15.690Z,40.38
2023-04-13T04:11:46.819Z,40.53
2023-04-13T04:14:18.185Z,40.53
2023-04-13T04:17:01.993Z,41.05
2023-04-13T04:19:28.688Z,38.70
2023-04-13T04:21:57.654Z,40.65
2023-04-13T04:24:27.500Z,44.47
2023-04-13T04:26:58.989Z,41.47
2023-04-13T04:29:34.269Z,42.95
2023-04-13T04:32:11.111Z,43.00
2023-04-13T04:34:40.822Z,43.50
2023-04-13T04:37:19.777Z,41.65
2023-04-13T04:39:56.832Z,40.55
2023-04-13T04:42:25.179Z,40.67
2023-04-13T04:44:52.867Z,41.30
2023-04-13T04:47:21.382Z,38.80
2023-04-13T04:50:12.763Z,38.67
2023-04-13T04:52:41.770Z,41.40
2023-04-13T04:55:10.156Z,44.42
2023-04-13T04:57:40.165Z,40.83
2023-04-13T05:00:15.657Z,41.55
2023-04-13T05:02:50.010Z,38.42
2023-04-13T05:05:16.890Z,37.58
2023-04-13T05:07:44.924Z,36.45
2023-04-13T05:10:12.322Z,37.63
2023-04-13T05:12:44.352Z,42.08
2023-04-13T05:15:12.314Z,43.90
2023-04-13T05:17:39.257Z,42.15
2023-04-13T05:20:09.457Z,39.42
2023-04-13T05:22:45.281Z,38.33
2023-04-13T05:25:13.242Z,49.70
2023-04-13T05:27:39.787Z,41.58
2023-04-13T05:30:09.483Z,40.00
2023-04-13T05:32:38.646Z,41.25
2023-04-13T05:35:05.862Z,38.55
2023-04-13T05:37:35.451Z,38.42
2023-04-13T05:40:02.829Z,38.42
2023-04-13T05:42:32.701Z,36.65
2023-04-13T05:45:00.818Z,37.58
2023-04-13T05:47:29.005Z,36.95
2023-04-13T05:50:02.351Z,34.40
2023-04-13T05:52:30.487Z,37.95
2023-04-13T05:54:58.032Z,35.17
2023-04-13T05:57:25.034Z,33.80
2023-04-13T05:59:54.664Z,34.90
2023-04-13T06:02:29.258Z,37.92
2023-04-13T06:04:56.452Z,37.05
2023-04-13T06:07:23.284Z,34.25
2023-04-13T06:09:49.988Z,25.05
2023-04-13T06:12:18.212Z,26.83
2023-04-13T06:14:45.483Z,27.00
2023-04-13T06:17:12.105Z,22.17
2023-04-13T06:19:39.279Z,19.15
2023-04-13T06:22:05.821Z,20.70
2023-04-13T06:24:37.377Z,22.25
2023-04-13T06:27:05.685Z,22.80
2023-04-13T06:29:32.348Z,27.05
2023-04-13T06:32:05.129Z,26.17
2023-04-13T06:34:31.795Z,25.35
2023-04-13T06:37:00.353Z,25.25
2023-04-13T06:39:32.480Z,27.80
2023-04-13T06:42:01.358Z,29.33
2023-04-13T06:44:47.512Z,29.38
2023-04-13T06:47:16.102Z,28.33
2023-04-13T06:49:44.509Z,29.42
2023-04-13T06:52:11.710Z,28.65
2023-04-13T06:54:38.706Z,30.88
2023-04-13T06:57:16.156Z,30.15
2023-04-13T06:59:42.892Z,28.25
2023-04-13T07:02:09.660Z,28.83
2023-04-13T07:04:37.648Z,29.05
2023-04-13T07:07:04.596Z,27.30
2023-04-13T07:09:32.144Z,27.42
2023-04-13T07:12:05.452Z,29.30
2023-04-13T07:14:36.743Z,28.52
2023-04-13T07:17:04.814Z,25.42
2023-04-13T07:19:33.831Z,27.60
2023-04-13T07:22:04.244Z,26.02
2023-04-13T07:27:03.172Z,26.27
2023-04-13T07:29:29.826Z,25.27
2023-04-13T07:32:03.511Z,25.17
2023-04-13T07:34:35.826Z,23.77
2023-04-13T07:37:02.757Z,24.40
2023-04-13T07:39:30.457Z,25.90
2023-04-13T07:41:57.185Z,20.75
2023-04-13T07:44:33.430Z,25.23
2023-04-13T07:47:02.531Z,24.42
2023-04-13T07:49:31.230Z,23.27
2023-04-13T07:51:59.617Z,24.80
2023-04-13T07:54:29.266Z,24.50
2023-04-13T07:56:59.809Z,24.95
2023-04-13T07:59:29.795Z,27.92
2023-04-13T08:01:58.071Z,23.35
2023-04-13T08:04:25.877Z,25.75
2023-04-13T08:06:54.005Z,22.50
2023-04-13T08:09:21.089Z,22.27
2023-04-13T08:11:47.806Z,22.23
2023-04-13T08:14:15.190Z,21.20
2023-04-13T08:16:41.870Z,19.73
2023-04-13T08:19:09.969Z,19.27
2023-04-13T08:21:44.213Z,19.67
2023-04-13T08:24:11.470Z,18.25
2023-04-13T08:26:38.295Z,19.20
2023-04-13T08:29:04.998Z,19.52
2023-04-13T08:31:32.538Z,19.80
2023-04-13T08:34:04.634Z,18.17
2023-04-13T08:36:31.830Z,15.98
2023-04-13T08:39:05.939Z,14.70
2023-04-13T08:41:39.232Z,14.18
2023-04-13T08:44:08.501Z,14.95
2023-04-13T08:46:42.663Z,15.27
2023-04-13T08:49:12.941Z,12.52
2023-04-13T08:52:00.028Z,12.48
2023-04-13T08:54:28.450Z,12.40
2023-04-13T08:56:57.703Z,10.65
2023-04-13T08:59:28.024Z,7.55
2023-04-13T09:01:55.827Z,7.40
2023-04-13T09:04:28.463Z,6.97
2023-04-13T09:07:00.148Z,7.60
2023-04-13T09:09:28.038Z,8.15
2023-04-13T09:11:54.559Z,8.52
2023-04-13T09:14:21.996Z,7.82
2023-04-13T09:16:48.936Z,9.65
2023-04-13T09:19:31.266Z,8.02
2023-04-13T09:21:57.918Z,8.90
2023-04-13T09:24:25.841Z,7.35
2023-04-13T09:26:52.468Z,8.88
2023-04-13T09:29:21.681Z,6.93
2023-04-13T09:31:48.685Z,8.77
2023-04-13T09:34:27.022Z,8.45
2023-04-13T09:36:56.084Z,6.72
2023-04-13T09:39:28.382Z,7.03
2023-04-13T09:41:55.338Z,6.40
2023-04-13T09:44:34.586Z,5.85
2023-04-13T09:47:06.855Z,5.03
2023-04-13T09:49:41.281Z,5.35
2023-04-13T09:52:21.170Z,5.10
2023-04-13T09:54:52.919Z,5.88
2023-04-13T09:57:24.563Z,6.15
2023-04-13T09:59:52.552Z,7.20
2023-04-13T10:02:19.885Z,6.47
2023-04-13T10:07:13.205Z,5.00
2023-04-13T10:09:42.221Z,5.95
2023-04-13T10:12:11.847Z,5.53
2023-04-13T10:14:40.863Z,5.07
2023-04-13T10:17:33.766Z,5.00
2023-04-13T10:20:07.973Z,5.32
2023-04-13T10:22:34.653Z,4.32
2023-04-13T10:25:01.379Z,6.55
2023-04-13T10:27:28.510Z,5.97
2023-04-13T10:29:55.172Z,6.45
2023-04-13T10:34:39.588Z,4.80
2023-04-13T10:37:19.189Z,4.75
2023-04-13T10:39:46.695Z,5.03
2023-04-13T10:42:14.470Z,3.35
2023-04-13T10:44:44.809Z,4.65
2023-04-13T10:47:13.556Z,5.80
2023-04-13T10:49:41.297Z,4.45
2023-04-13T10:52:10.705Z,5.00
2023-04-13T10:54:38.183Z,4.13
2023-04-13T10:57:06.650Z,5.40
2023-04-13T11:02:16.485Z,4.75
2023-04-13T11:04:45.974Z,6.22
2023-04-13T11:07:17.010Z,6.00
2023-04-13T11:09:45.565Z,6.53
2023-04-13T11:12:15.644Z,5.65
2023-04-13T11:14:49.553Z,5.78
2023-04-13T11:17:18.857Z,5.53
2023-04-13T11:19:49.985Z,4.78
2023-04-13T11:22:18.389Z,5.60
2023-04-13T11:24:47.465Z,4.80
2023-04-13T11:27:23.236Z,5.13
2023-04-13T11:30:07.357Z,4.88
2023-04-13T11:32:34.298Z,4.70
2023-04-13T11:35:10.721Z,4.45
2023-04-13T11:37:43.326Z,4.13
2023-04-13T11:40:17.661Z,4.00
2023-04-13T11:42:48.045Z,4.90
2023-04-13T11:45:16.306Z,3.97
2023-04-13T11:47:43.810Z,4.13
2023-04-13T11:50:11.514Z,4.30
2023-04-13T11:52:40.253Z,4.32
2023-04-13T11:55:21.550Z,4.30
2023-04-13T11:57:50.764Z,5.20
2023-04-13T12:00:21.405Z,5.15
2023-04-13T12:03:00.972Z,4.63
2023-04-13T12:05:31.479Z,4.40
2023-04-13T12:08:00.268Z,5.13
2023-04-13T12:10:39.328Z,5.63
2023-04-13T12:16:05.445Z,4.65
2023-04-13T12:18:44.423Z,4.55
2023-04-13T12:21:16.413Z,5.45
2023-04-13T12:23:54.149Z,5.80
2023-04-13T12:26:59.124Z,4.57
2023-04-13T12:29:08.939Z,4.45
2023-04-13T12:31:38.173Z,5.13
2023-04-13T12:34:08.431Z,5.72
2023-04-13T12:36:36.500Z,6.40
2023-04-13T12:39:04.470Z,4.60
2023-04-13T12:41:32.037Z,5.47
2023-04-13T12:43:59.049Z,6.25
2023-04-13T12:46:26.595Z,5.30
2023-04-13T12:48:53.954Z,5.53
2023-04-13T12:51:26.958Z,6.45
2023-04-13T12:53:53.571Z,4.68
2023-04-13T12:56:20.062Z,5.53
2023-04-13T12:58:46.803Z,5.20
2023-04-13T13:01:14.100Z,4.88
2023-04-13T13:03:41.038Z,4.65
2023-04-13T13:06:08.337Z,5.22
2023-04-13T13:08:37.595Z,4.53
2023-04-13T13:11:08.245Z,5.20
2023-04-13T13:13:34.923Z,5.00
2023-04-13T13:16:02.009Z,4.88
2023-04-13T13:20:55.802Z,4.50
2023-04-13T13:23:22.541Z,5.35
2023-04-13T13:26:10.508Z,5.28
2023-04-13T13:28:37.025Z,5.03
2023-04-13T13:31:03.966Z,4.38
2023-04-13T13:33:31.490Z,5.25
2023-04-13T13:35:58.138Z,5.18
2023-04-13T13:38:24.779Z,4.70
2023-04-13T13:40:51.902Z,5.65
2023-04-13T13:43:21.417Z,4.63
2023-04-13T13:45:48.775Z,4.03
2023-04-13T13:48:15.919Z,4.75
2023-04-13T13:50:50.428Z,4.43
2023-04-13T13:53:17.181Z,4.22
2023-04-13T13:55:45.137Z,4.30
2023-04-13T13:58:11.898Z,4.60
2023-04-13T14:00:38.403Z,5.20
2023-04-13T14:03:05.701Z,4.55
2023-04-13T14:05:32.293Z,4.65
2023-04-13T14:07:59.027Z,4.35
2023-04-13T14:10:25.668Z,4.32
2023-04-13T14:12:53.033Z,4.60
2023-04-13T14:15:19.494Z,4.07
2023-04-13T14:17:55.426Z,5.32
2023-04-13T14:20:32.511Z,5.63
2023-04-13T14:22:59.387Z,4.38
2023-04-13T14:25:25.998Z,4.25
2023-04-13T14:27:52.994Z,4.00
2023-04-13T14:30:21.930Z,4.45
2023-04-13T14:32:49.391Z,3.72
2023-04-13T14:35:16.284Z,4.10
2023-04-13T14:37:42.985Z,4.47
2023-04-13T14:40:15.957Z,5.63
2023-04-13T14:42:43.350Z,5.43
2023-04-13T14:45:12.278Z,5.78
2023-04-13T14:47:40.001Z,8.88
2023-04-13T14:50:08.321Z,8.48
2023-04-13T14:52:34.983Z,7.43
2023-04-13T14:55:01.594Z,6.75
2023-04-13T14:57:29.004Z,6.15
2023-04-13T14:59:56.489Z,12.68
2023-04-13T15:02:23.467Z,10.90
2023-04-13T15:04:50.402Z,10.85
2023-04-13T15:07:18.801Z,13.65
2023-04-13T15:09:45.442Z,11.52
2023-04-13T15:12:13.732Z,14.30
2023-04-13T15:14:41.057Z,11.00
2023-04-13T15:17:08.584Z,8.77
2023-04-13T15:19:35.477Z,41.63
2023-04-13T15:22:04.754Z,6.10
2023-04-13T15:24:31.824Z,5.85
2023-04-13T15:26:58.354Z,6.30
2023-04-13T15:29:26.966Z,5.93
2023-04-13T15:31:53.980Z,6.03
2023-04-13T15:34:20.685Z,5.75
2023-04-13T15:36:48.166Z,7.22
2023-04-13T15:39:14.729Z,8.98
2023-04-13T15:41:43.674Z,7.57
2023-04-13T15:44:10.916Z,8.35
2023-04-13T15:46:37.711Z,8.30
2023-04-13T15:49:04.390Z,9.40
2023-04-13T15:51:31.884Z,9.68
2023-04-13T15:53:58.477Z,10.07
2023-04-13T15:56:25.012Z,10.15
2023-04-13T15:58:51.607Z,11.60
2023-04-13T16:01:18.201Z,9.00
2023-04-13T16:03:46.354Z,9.65
2023-04-13T16:06:13.298Z,9.95
2023-04-13T16:08:40.076Z,10.10
2023-04-13T16:11:06.620Z,10.13
2023-04-13T16:13:48.783Z,10.18
2023-04-13T16:16:16.811Z,11.63
2023-04-13T16:18:43.515Z,11.65
2023-04-13T16:21:11.106Z,12.10
2023-04-13T16:23:38.243Z,10.98
2023-04-13T16:26:05.082Z,11.63
2023-04-13T16:28:31.634Z,13.13
2023-04-13T16:30:59.015Z,14.32
2023-04-13T16:33:25.582Z,13.20
2023-04-13T16:35:52.097Z,14.27
2023-04-13T16:38:19.036Z,14.25
2023-04-13T16:40:45.768Z,15.27
2023-04-13T16:43:12.588Z,16.02
2023-04-13T16:45:39.262Z,15.50
2023-04-13T16:48:06.319Z,16.02
2023-04-13T16:50:40.666Z,17.45
2023-04-13T16:53:07.382Z,17.80
2023-04-13T16:55:33.920Z,19.30
2023-04-13T16:58:00.770Z,18.73
2023-04-13T17:00:27.397Z,18.40
2023-04-13T17:02:54.123Z,18.98
2023-04-13T17:05:20.869Z,19.42
2023-04-13T17:07:48.096Z,19.02
2023-04-13T17:10:14.973Z,18.50
2023-04-13T17:12:41.717Z,21.20
2023-04-13T17:15:09.584Z,20.17
2023-04-13T17:17:37.933Z,20.05
2023-04-13T17:20:05.825Z,21.77
2023-04-13T17:22:32.564Z,23.75
2023-04-13T17:24:59.159Z,23.52
2023-04-13T17:27:25.714Z,28.33
2023-04-13T17:29:52.253Z,26.65
2023-04-13T17:32:21.405Z,27.73
2023-04-13T17:34:48.612Z,28.80
2023-04-13T17:37:15.881Z,26.42
2023-04-13T17:39:50.657Z,31.65
2023-04-13T17:42:19.111Z,23.85
2023-04-13T17:44:45.721Z,29.25
2023-04-13T17:47:12.324Z,28.90
2023-04-13T17:49:41.628Z,20.92
2023-04-13T17:52:08.795Z,22.13
2023-04-13T17:54:36.148Z,21.83
2023-04-13T17:57:07.050Z,20.65
2023-04-13T17:59:33.779Z,20.33
2023-04-13T18:02:00.506Z,22.70
2023-04-13T18:04:27.935Z,23.95
2023-04-13T18:06:56.452Z,16.33
2023-04-13T18:09:27.022Z,16.67
2023-04-13T18:11:53.723Z,17.17
2023-04-13T18:14:20.861Z,18.92
2023-04-13T18:16:49.688Z,21.10
2023-04-13T18:19:16.226Z,19.92
2023-04-13T18:21:43.927Z,19.50
2023-04-13T18:24:16.386Z,16.42
2023-04-13T18:26:44.914Z,14.52
2023-04-13T18:29:13.680Z,16.13
2023-04-13T18:31:40.502Z,17.08
2023-04-13T18:34:13.403Z,17.45
2023-04-13T18:36:40.492Z,17.88
2023-04-13T18:39:07.631Z,18.95
2023-04-13T18:41:35.279Z,21.77
2023-04-13T18:44:02.415Z,21.52
2023-04-13T18:46:29.288Z,24.38
2023-04-13T18:48:55.919Z,23.25
2023-04-13T18:51:22.861Z,24.33
2023-04-13T18:53:50.110Z,24.58
2023-04-13T18:56:16.892Z,27.50
2023-04-13T18:58:44.904Z,26.80
2023-04-13T19:01:18.612Z,24.85
2023-04-13T19:03:46.197Z,25.65
2023-04-13T19:06:12.945Z,25.48
2023-04-13T19:08:39.587Z,24.63
2023-04-13T19:11:06.124Z,24.60
2023-04-13T19:13:36.095Z,26.33
2023-04-13T19:16:06.444Z,24.58
2023-04-13T19:18:34.909Z,26.10
2023-04-13T19:21:01.491Z,26.30
2023-04-13T19:23:28.506Z,27.35
2023-04-13T19:25:55.450Z,25.02
2023-04-13T19:30:44.740Z,26.65
2023-04-13T19:33:13.069Z,24.65
2023-04-13T19:38:05.894Z,26.13
2023-04-13T19:40:33.745Z,24.50
2023-04-13T19:43:01.413Z,23.30
2023-04-13T19:45:28.363Z,23.65
2023-04-13T19:47:55.109Z,26.83
2023-04-13T19:50:22.537Z,25.33
2023-04-13T19:52:50.253Z,25.58
2023-04-13T19:55:17.079Z,27.90
2023-04-13T19:57:43.719Z,32.92
2023-04-13T20:00:20.799Z,29.27
2023-04-13T20:02:49.863Z,27.73
2023-04-13T20:05:19.734Z,30.40
2023-04-13T20:07:46.890Z,28.90
2023-04-13T20:10:13.618Z,33.72
2023-04-13T20:12:40.615Z,31.63
2023-04-13T20:15:07.931Z,31.00
2023-04-13T20:17:35.079Z,32.78
2023-04-13T20:20:04.376Z,35.22
2023-04-13T20:22:32.172Z,34.22
2023-04-13T20:24:58.775Z,30.75
2023-04-13T20:27:25.985Z,32.83
2023-04-13T20:29:52.613Z,33.55
2023-04-13T20:32:19.611Z,32.92
2023-04-13T20:34:47.150Z,31.52
2023-04-13T20:37:14.390Z,29.83
2023-04-13T20:39:50.253Z,30.63
2023-04-13T20:42:22.397Z,32.28
2023-04-13T20:44:57.526Z,31.35
2023-04-13T20:47:27.513Z,29.85
2023-04-13T20:49:57.295Z,33.33
2023-04-13T20:52:24.678Z,33.63
2023-04-13T20:54:51.616Z,33.08
2023-04-13T20:57:19.853Z,30.02
2023-04-13T20:59:47.234Z,31.05
2023-04-13T21:02:15.565Z,29.05
2023-04-13T21:06:55.043Z,31.38
2023-04-13T21:09:21.571Z,31.00
2023-04-13T21:11:48.030Z,30.38
2023-04-13T21:14:22.726Z,28.23
2023-04-13T21:16:49.288Z,29.58
2023-04-13T21:19:15.949Z,30.30
2023-04-13T21:21:42.616Z,27.15
2023-04-13T21:24:09.209Z,30.60
2023-04-13T21:26:35.746Z,29.60
2023-04-13T21:29:02.354Z,30.75
2023-04-13T21:31:29.028Z,28.48
2023-04-13T21:33:56.017Z,28.92
2023-04-13T21:38:52.218Z,27.83
2023-04-13T21:41:20.840Z,30.63
2023-04-13T21:43:47.827Z,31.55
2023-04-13T21:46:15.888Z,30.02
2023-04-13T21:48:42.601Z,31.15
2023-04-13T21:51:09.715Z,31.17
2023-04-13T21:53:36.884Z,31.15
2023-04-13T21:56:04.139Z,30.02
2023-04-13T21:58:38.588Z,30.63
2023-04-13T22:01:06.635Z,32.17
2023-04-13T22:03:41.005Z,33.58
2023-04-13T22:06:10.691Z,31.65
2023-04-13T22:08:37.725Z,33.78
2023-04-13T22:11:04.693Z,34.03
2023-04-13T22:13:31.467Z,29.85
2023-04-13T22:15:58.626Z,31.10
2023-04-13T22:18:26.478Z,32.80
2023-04-13T22:20:53.226Z,32.92
2023-04-13T22:23:20.246Z,32.72
2023-04-13T22:25:53.923Z,31.92
2023-04-13T22:28:20.478Z,30.40
2023-04-13T22:30:47.286Z,29.67
2023-04-13T22:33:14.299Z,31.45
2023-04-13T22:35:41.636Z,32.28
2023-04-13T22:38:08.325Z,31.38
2023-04-13T22:40:37.782Z,32.55
2023-04-13T22:43:04.820Z,29.42
2023-04-13T22:45:31.625Z,31.00
2023-04-13T22:47:58.248Z,33.25
2023-04-13T22:50:24.873Z,29.80
2023-04-13T22:52:53.282Z,27.17
2023-04-13T22:55:20.655Z,30.23
2023-04-13T22:57:47.500Z,26.77
2023-04-13T23:00:14.297Z,27.45
2023-04-13T23:02:41.215Z,27.95
2023-04-13T23:05:08.477Z,27.63
2023-04-13T23:07:35.365Z,28.75
2023-04-13T23:10:01.972Z,27.88
2023-04-13T23:12:28.917Z,27.25
2023-04-13T23:14:55.406Z,28.73
2023-04-13T23:17:22.315Z,30.25
2023-04-13T23:19:48.882Z,30.00
2023-04-13T23:22:15.437Z,30.20
2023-04-13T23:24:42.038Z,31.67
2023-04-13T23:27:08.633Z,31.63
2023-04-13T23:29:35.326Z,31.48
2023-04-13T23:32:01.996Z,29.83
2023-04-13T23:34:28.714Z,31.13
2023-04-13T23:36:56.171Z,36.03
2023-04-13T23:39:23.058Z,33.90
2023-04-13T23:41:49.608Z,29.63
2023-04-13T23:44:16.291Z,28.33
2023-04-13T23:46:43.658Z,28.52
2023-04-13T23:49:10.153Z,27.60
2023-04-13T23:51:36.786Z,26.75
2023-04-13T23:54:03.391Z,26.83
2023-04-13T23:56:30.466Z,26.45
2023-04-13T23:58:56.962Z,28.27
